createdAt,value
2023-06-10T00:00:02.829Z,36.04
2023-06-10T00:03:00.895Z,36.01
2023-06-10T00:05:32.442Z,36.13
2023-06-10T00:08:00.923Z,36.22
2023-06-10T00:10:29.130Z,36.20
2023-06-10T00:12:57.574Z,35.98
2023-06-10T00:15:25.700Z,36.09
2023-06-10T00:17:54.298Z,36.27
2023-06-10T00:20:24.705Z,36.16
2023-06-10T00:22:53.335Z,36.11
2023-06-10T00:25:21.609Z,36.01
2023-06-10T00:27:49.980Z,36.13
2023-06-10T00:30:18.323Z,36.23
2023-06-10T00:32:46.376Z,36.28
2023-06-10T00:35:14.941Z,36.07
2023-06-10T00:37:43.189Z,35.99
2023-06-10T00:40:12.027Z,36.13
2023-06-10T00:42:40.701Z,36.13
2023-06-10T00:45:09.545Z,36.14
2023-06-10T00:47:38.902Z,36.08
2023-06-10T00:50:07.641Z,36.09
2023-06-10T00:52:35.978Z,36.02
2023-06-10T00:55:04.672Z,36.17
2023-06-10T00:57:33.738Z,36.02
2023-06-10T01:00:01.989Z,35.92
2023-06-10T01:02:30.733Z,36.02
2023-06-10T01:05:03.015Z,35.93
2023-06-10T01:07:41.356Z,36.16
2023-06-10T01:10:12.677Z,35.91
2023-06-10T01:12:41.198Z,36.06
2023-06-10T01:15:11.564Z,36.04
2023-06-10T01:17:56.281Z,36.07
2023-06-10T01:20:27.937Z,36.32
2023-06-10T01:22:56.476Z,35.94
2023-06-10T01:25:30.609Z,36.01
2023-06-10T01:28:21.651Z,35.98
2023-06-10T01:31:22.364Z,35.98
2023-06-10T01:33:52.888Z,36.02
2023-06-10T01:36:21.424Z,36.08
2023-06-10T01:38:49.626Z,35.96
2023-06-10T01:41:18.413Z,36.03
2023-06-10T01:43:46.583Z,35.96
2023-06-10T01:46:16.405Z,35.92
2023-06-10T01:48:44.773Z,36.14
2023-06-10T01:51:13.227Z,35.81
2023-06-10T01:53:41.398Z,36.05
2023-06-10T01:56:09.517Z,36.09
2023-06-10T01:58:37.524Z,36.06
2023-06-10T02:01:05.897Z,35.95
2023-06-10T02:03:34.078Z,36.09
2023-06-10T02:06:02.656Z,35.86
2023-06-10T02:08:30.815Z,35.97
2023-06-10T02:11:02.003Z,36.05
2023-06-10T02:13:31.367Z,36.05
2023-06-10T02:15:59.553Z,35.81
2023-06-10T02:18:29.790Z,35.95
2023-06-10T02:20:57.825Z,35.95
2023-06-10T02:23:27.989Z,35.95
2023-06-10T02:25:56.576Z,36.01
2023-06-10T02:28:26.921Z,35.98
2023-06-10T02:30:55.086Z,35.81
2023-06-10T02:33:24.290Z,35.71
2023-06-10T02:35:52.517Z,36.00
2023-06-10T02:38:21.170Z,36.03
2023-06-10T02:40:49.919Z,36.05
2023-06-10T02:43:18.282Z,36.00
2023-06-10T02:45:46.663Z,36.05
2023-06-10T02:48:16.009Z,35.93
2023-06-10T02:50:44.477Z,36.01
2023-06-10T02:53:18.773Z,35.98
2023-06-10T02:55:50.691Z,35.92
2023-06-10T02:58:19.635Z,36.04
2023-06-10T03:00:48.373Z,35.67
2023-06-10T03:03:17.400Z,35.78
2023-06-10T03:05:51.713Z,35.95
2023-06-10T03:08:20.237Z,35.82
2023-06-10T03:10:48.394Z,35.85
2023-06-10T03:13:18.102Z,35.81
2023-06-10T03:15:47.393Z,35.85
2023-06-10T03:18:17.880Z,35.84
2023-06-10T03:20:46.659Z,35.69
2023-06-10T03:23:16.847Z,35.74
2023-06-10T03:25:46.245Z,35.83
2023-06-10T03:28:17.145Z,35.83
2023-06-10T03:30:46.079Z,35.98
2023-06-10T03:33:15.168Z,35.87
2023-06-10T03:35:43.714Z,35.85
2023-06-10T03:38:12.574Z,35.90
2023-06-10T03:40:41.302Z,35.70
2023-06-10T03:43:09.653Z,35.74
2023-06-10T03:45:38.178Z,35.99
2023-06-10T03:48:07.569Z,35.69
2023-06-10T03:50:43.495Z,35.84
2023-06-10T03:53:11.640Z,35.98
2023-06-10T03:55:40.743Z,35.90
2023-06-10T03:58:08.867Z,35.90
2023-06-10T04:00:42.546Z,35.77
2023-06-10T04:03:15.650Z,35.94
2023-06-10T04:05:49.397Z,35.76
2023-06-10T04:08:17.513Z,35.78
2023-06-10T04:10:45.637Z,35.81
2023-06-10T04:13:15.732Z,35.77
2023-06-10T04:15:51.085Z,35.80
2023-06-10T04:18:19.314Z,35.75
2023-06-10T04:20:47.698Z,35.68
2023-06-10T04:23:15.698Z,35.79
2023-06-10T04:25:45.450Z,35.76
2023-06-10T04:28:13.875Z,36.04
2023-06-10T04:30:42.963Z,36.01
2023-06-10T04:33:11.394Z,35.81
2023-06-10T04:35:40.358Z,35.77
2023-06-10T04:38:09.236Z,35.75
2023-06-10T04:40:37.259Z,36.00
2023-06-10T04:43:06.200Z,36.02
2023-06-10T04:45:34.704Z,35.94
2023-06-10T04:50:34.285Z,35.78
2023-06-10T04:53:04.008Z,35.91
2023-06-10T04:55:32.765Z,35.87
2023-06-10T04:58:02.109Z,35.73
2023-06-10T05:00:30.245Z,35.89
2023-06-10T05:03:00.832Z,35.93
2023-06-10T05:05:28.953Z,36.05
2023-06-10T05:07:59.311Z,35.88
2023-06-10T05:10:27.341Z,35.90
2023-06-10T05:12:56.938Z,35.92
2023-06-10T05:15:25.207Z,36.15
2023-06-10T05:17:58.582Z,36.09
2023-06-10T05:20:27.106Z,36.07
2023-06-10T05:22:56.835Z,36.11
2023-06-10T05:25:27.097Z,36.05
2023-06-10T05:27:56.336Z,35.90
2023-06-10T05:30:25.771Z,35.99
2023-06-10T05:32:56.762Z,35.98
2023-06-10T05:35:25.078Z,35.88
2023-06-10T05:37:54.419Z,35.99
2023-06-10T05:40:22.721Z,36.01
2023-06-10T05:42:52.141Z,36.24
2023-06-10T05:45:20.186Z,36.22
2023-06-10T05:47:48.261Z,36.07
2023-06-10T05:50:17.829Z,35.90
2023-06-10T05:52:45.903Z,35.96
2023-06-10T05:55:14.072Z,36.00
2023-06-10T05:57:43.667Z,35.88
2023-06-10T06:00:12.644Z,35.90
2023-06-10T06:02:42.325Z,35.93
2023-06-10T06:05:10.859Z,35.84
2023-06-10T06:07:40.651Z,35.89
2023-06-10T06:10:08.847Z,35.74
2023-06-10T06:12:38.633Z,36.02
2023-06-10T06:15:07.172Z,35.85
2023-06-10T06:17:36.826Z,35.91
2023-06-10T06:20:05.646Z,35.90
2023-06-10T06:22:36.103Z,35.98
2023-06-10T06:25:04.345Z,35.79
2023-06-10T06:27:34.053Z,35.83
2023-06-10T06:30:02.189Z,35.73
2023-06-10T06:32:32.198Z,35.80
2023-06-10T06:35:00.225Z,35.93
2023-06-10T06:37:30.689Z,35.85
2023-06-10T06:40:09.470Z,35.80
2023-06-10T06:42:37.637Z,35.83
2023-06-10T06:45:16.856Z,35.80
2023-06-10T06:47:45.095Z,35.70
2023-06-10T06:50:16.342Z,35.78
2023-06-10T06:52:44.584Z,35.70
2023-06-10T06:55:14.981Z,35.86
2023-06-10T06:57:43.006Z,35.73
2023-06-10T07:00:13.853Z,35.89
2023-06-10T07:02:42.662Z,35.78
2023-06-10T07:05:12.443Z,35.93
2023-06-10T07:07:40.817Z,35.92
2023-06-10T07:10:12.133Z,35.91
2023-06-10T07:12:40.587Z,35.89
2023-06-10T07:15:11.137Z,35.90
2023-06-10T07:17:39.570Z,36.04
2023-06-10T07:20:09.338Z,35.92
2023-06-10T07:22:37.350Z,36.02
2023-06-10T07:25:08.463Z,35.77
2023-06-10T07:27:38.311Z,35.96
2023-06-10T07:30:09.584Z,35.99
2023-06-10T07:32:37.861Z,35.83
2023-06-10T07:35:09.935Z,36.06
2023-06-10T07:37:38.590Z,35.86
2023-06-10T07:40:08.400Z,36.06
2023-06-10T07:42:37.654Z,35.77
2023-06-10T07:45:07.750Z,35.87
2023-06-10T07:47:36.304Z,35.96
2023-06-10T07:50:06.165Z,35.83
2023-06-10T07:52:35.863Z,35.88
2023-06-10T07:55:06.221Z,35.81
2023-06-10T07:57:37.582Z,35.63
2023-06-10T08:00:07.591Z,35.89
2023-06-10T08:02:43.080Z,35.83
2023-06-10T08:05:11.438Z,35.69
2023-06-10T08:07:41.229Z,35.82
2023-06-10T08:10:09.352Z,35.93
2023-06-10T08:12:39.901Z,35.73
2023-06-10T08:15:08.928Z,35.84
2023-06-10T08:17:39.171Z,35.91
2023-06-10T08:20:08.620Z,35.77
2023-06-10T08:22:38.109Z,35.67
2023-06-10T08:25:07.218Z,35.83
2023-06-10T08:27:36.840Z,35.61
2023-06-10T08:30:05.363Z,35.69
2023-06-10T08:32:34.753Z,35.56
2023-06-10T08:35:02.861Z,35.68
2023-06-10T08:37:33.282Z,35.61
2023-06-10T08:40:02.350Z,35.45
2023-06-10T08:42:57.471Z,35.74
2023-06-10T08:45:27.309Z,35.52
2023-06-10T08:47:55.442Z,35.60
2023-06-10T08:50:25.318Z,35.51
2023-06-10T08:52:55.335Z,35.44
2023-06-10T08:55:36.983Z,35.49
2023-06-10T08:58:06.214Z,35.59
2023-06-10T09:00:35.737Z,35.55
2023-06-10T09:03:05.735Z,35.46
2023-06-10T09:05:39.503Z,35.43
2023-06-10T09:08:10.323Z,35.46
2023-06-10T09:10:38.407Z,35.59
2023-06-10T09:13:07.803Z,35.45
2023-06-10T09:15:36.005Z,35.40
2023-06-10T09:18:06.267Z,35.53
2023-06-10T09:20:36.072Z,35.26
2023-06-10T09:23:04.546Z,35.34
2023-06-10T09:25:38.990Z,35.48
2023-06-10T09:28:14.077Z,35.39
2023-06-10T09:30:43.388Z,35.34
2023-06-10T09:33:13.517Z,35.16
2023-06-10T09:35:47.196Z,35.32
2023-06-10T09:38:17.018Z,35.26
2023-06-10T09:40:51.096Z,35.27
2023-06-10T09:43:21.964Z,35.38
2023-06-10T09:45:50.915Z,35.17
2023-06-10T09:48:20.480Z,35.30
2023-06-10T09:50:49.634Z,35.27
2023-06-10T09:53:19.428Z,35.39
2023-06-10T09:55:47.491Z,35.37
2023-06-10T09:58:18.113Z,35.13
2023-06-10T10:00:46.219Z,35.32
2023-06-10T10:03:23.527Z,35.31
2023-06-10T10:05:59.629Z,35.12
2023-06-10T10:08:29.660Z,35.06
2023-06-10T10:10:58.154Z,35.14
2023-06-10T10:13:28.182Z,35.16
2023-06-10T10:15:58.165Z,35.06
2023-06-10T10:18:30.190Z,35.16
2023-06-10T10:20:58.790Z,35.03
2023-06-10T10:23:33.361Z,35.04
2023-06-10T10:26:08.035Z,35.02
2023-06-10T10:28:43.623Z,35.18
2023-06-10T10:31:12.122Z,35.10
2023-06-10T10:33:50.650Z,35.10
2023-06-10T10:36:20.206Z,35.10
2023-06-10T10:38:52.433Z,35.02
2023-06-10T10:41:22.381Z,35.25
2023-06-10T10:43:52.712Z,34.86
2023-06-10T10:46:22.181Z,34.89
2023-06-10T10:48:53.777Z,35.01
2023-06-10T10:51:26.395Z,34.96
2023-06-10T10:54:14.262Z,35.12
2023-06-10T10:57:21.390Z,35.05
2023-06-10T10:59:50.895Z,34.98
2023-06-10T11:02:46.023Z,34.99
2023-06-10T11:05:17.332Z,34.91
2023-06-10T11:07:58.666Z,34.86
2023-06-10T11:10:32.356Z,35.11
2023-06-10T11:13:00.970Z,34.89
2023-06-10T11:15:31.606Z,34.83
2023-06-10T11:18:11.842Z,35.06
2023-06-10T11:20:50.189Z,34.86
2023-06-10T11:23:46.051Z,34.90
2023-06-10T11:26:17.133Z,34.97
2023-06-10T11:28:48.579Z,34.89
2023-06-10T11:31:31.621Z,34.96
2023-06-10T11:34:02.921Z,34.96
2023-06-10T11:36:31.046Z,34.99
2023-06-10T11:39:01.512Z,34.83
2023-06-10T11:41:30.593Z,34.82
2023-06-10T11:44:06.862Z,34.64
2023-06-10T11:46:36.486Z,34.78
2023-06-10T11:49:05.135Z,34.81
2023-06-10T11:51:41.974Z,34.68
2023-06-10T11:54:11.312Z,34.67
2023-06-10T11:56:39.693Z,34.65
2023-06-10T11:59:10.092Z,34.58
2023-06-10T12:01:43.951Z,34.69
2023-06-10T12:04:15.332Z,34.73
2023-06-10T12:06:50.721Z,34.62
2023-06-10T12:09:24.167Z,34.87
2023-06-10T12:12:00.710Z,34.62
2023-06-10T12:15:03.908Z,34.78
2023-06-10T12:17:33.821Z,34.85
2023-06-10T12:20:02.646Z,34.88
2023-06-10T12:22:42.067Z,34.94
2023-06-10T12:25:12.787Z,34.82
2023-06-10T12:27:42.169Z,34.98
2023-06-10T12:30:12.046Z,34.94
2023-06-10T12:32:44.086Z,35.04
2023-06-10T12:35:21.023Z,34.97
2023-06-10T12:38:04.608Z,35.11
2023-06-10T12:40:41.761Z,35.11
2023-06-10T12:43:11.336Z,35.14
2023-06-10T12:45:46.389Z,35.38
2023-06-10T12:48:23.134Z,34.98
2023-06-10T12:50:54.074Z,35.06
2023-06-10T12:53:24.337Z,35.17
2023-06-10T12:55:53.683Z,35.19
2023-06-10T12:58:23.211Z,35.08
2023-06-10T13:00:56.339Z,35.18
2023-06-10T13:03:24.385Z,34.91
2023-06-10T13:05:54.136Z,35.08
2023-06-10T13:08:22.295Z,34.88
2023-06-10T13:10:51.906Z,34.95
2023-06-10T13:13:20.291Z,34.76
2023-06-10T13:15:51.229Z,34.69
2023-06-10T13:18:20.263Z,34.72
2023-06-10T13:20:50.093Z,34.63
2023-06-10T13:23:18.058Z,34.60
2023-06-10T13:25:48.764Z,34.64
2023-06-10T13:28:17.102Z,34.72
2023-06-10T13:30:46.636Z,34.80
2023-06-10T13:33:14.804Z,34.69
2023-06-10T13:35:45.163Z,35.06
2023-06-10T13:38:13.749Z,34.80
2023-06-10T13:40:43.843Z,34.86
2023-06-10T13:43:12.515Z,34.99
2023-06-10T13:45:42.004Z,35.13
2023-06-10T13:48:10.351Z,35.00
2023-06-10T13:50:39.822Z,35.05
2023-06-10T13:53:07.833Z,35.33
2023-06-10T13:55:38.308Z,35.29
2023-06-10T13:58:06.669Z,35.29
2023-06-10T14:00:37.027Z,35.16
2023-06-10T14:03:05.265Z,35.49
2023-06-10T14:05:35.693Z,35.43
2023-06-10T14:08:04.111Z,35.49
2023-06-10T14:10:33.971Z,35.65
2023-06-10T14:13:01.995Z,35.54
2023-06-10T14:15:33.480Z,35.91
2023-06-10T14:18:02.367Z,35.77
2023-06-10T14:20:32.640Z,35.93
2023-06-10T14:23:00.914Z,36.01
2023-06-10T14:25:30.466Z,36.10
2023-06-10T14:27:59.414Z,36.49
2023-06-10T14:30:28.716Z,36.36
2023-06-10T14:32:56.875Z,36.17
2023-06-10T14:35:26.516Z,36.65
2023-06-10T14:37:54.526Z,36.59
2023-06-10T14:40:24.124Z,36.85
2023-06-10T14:42:53.492Z,36.93
2023-06-10T14:45:21.558Z,36.72
2023-06-10T14:47:52.008Z,36.78
2023-06-10T14:50:20.454Z,36.87
2023-06-10T14:52:50.776Z,36.83
2023-06-10T14:55:19.381Z,36.99
2023-06-10T14:57:50.213Z,37.17
2023-06-10T15:00:21.088Z,36.77
2023-06-10T15:02:50.948Z,36.88
2023-06-10T15:05:20.686Z,36.88
2023-06-10T15:07:50.094Z,37.11
2023-06-10T15:10:21.036Z,36.97
2023-06-10T15:12:57.326Z,37.14
2023-06-10T15:15:27.914Z,37.23
2023-06-10T15:17:56.986Z,37.09
2023-06-10T15:20:26.387Z,37.07
2023-06-10T15:22:55.022Z,36.98
2023-06-10T15:25:31.129Z,37.26
2023-06-10T15:28:01.229Z,37.21
2023-06-10T15:30:29.332Z,37.10
2023-06-10T15:32:58.743Z,37.21
2023-06-10T15:35:28.275Z,37.24
2023-06-10T15:37:56.515Z,37.30
2023-06-10T15:40:27.440Z,37.17
2023-06-10T15:42:55.915Z,37.46
2023-06-10T15:45:26.350Z,37.58
2023-06-10T15:47:54.743Z,37.29
2023-06-10T15:50:25.205Z,37.58
2023-06-10T15:52:53.283Z,37.53
2023-06-10T15:55:23.678Z,37.56
2023-06-10T15:57:51.740Z,37.45
2023-06-10T16:00:22.068Z,37.55
2023-06-10T16:02:50.369Z,37.71
2023-06-10T16:05:20.811Z,37.88
2023-06-10T16:07:48.938Z,37.91
2023-06-10T16:10:18.801Z,37.98
2023-06-10T16:12:46.810Z,37.84
2023-06-10T16:15:17.565Z,38.03
2023-06-10T16:17:46.865Z,37.85
2023-06-10T16:20:16.604Z,37.92
2023-06-10T16:22:44.920Z,37.82
2023-06-10T16:25:15.436Z,37.83
2023-06-10T16:27:43.498Z,37.77
2023-06-10T16:30:17.001Z,37.91
2023-06-10T16:32:45.028Z,37.91
2023-06-10T16:35:14.684Z,37.91
2023-06-10T16:37:43.278Z,38.20
2023-06-10T16:40:13.784Z,38.24
2023-06-10T16:42:42.184Z,38.26
2023-06-10T16:45:12.642Z,37.97
2023-06-10T16:47:41.081Z,37.94
2023-06-10T16:50:10.774Z,37.74
2023-06-10T16:52:39.070Z,37.69
2023-06-10T16:55:10.028Z,37.86
2023-06-10T16:57:38.347Z,37.87
2023-06-10T17:00:09.886Z,37.85
2023-06-10T17:02:37.906Z,37.65
2023-06-10T17:05:08.152Z,37.78
2023-06-10T17:07:36.417Z,37.85
2023-06-10T17:10:07.562Z,37.74
2023-06-10T17:12:35.643Z,37.72
2023-06-10T17:15:05.803Z,37.76
2023-06-10T17:17:35.093Z,37.84
2023-06-10T17:20:06.395Z,37.74
2023-06-10T17:22:34.531Z,37.74
2023-06-10T17:25:03.971Z,37.79
2023-06-10T17:27:32.218Z,37.95
2023-06-10T17:30:02.004Z,38.03
2023-06-10T17:32:30.287Z,38.15
2023-06-10T17:35:01.186Z,38.45
2023-06-10T17:37:29.334Z,38.46
2023-06-10T17:40:00.273Z,38.55
2023-06-10T17:42:28.433Z,38.58
2023-06-10T17:44:58.043Z,38.52
2023-06-10T17:47:26.218Z,38.62
2023-06-10T17:49:56.583Z,38.63
2023-06-10T17:52:24.579Z,38.78
2023-06-10T17:54:54.943Z,38.91
2023-06-10T17:57:23.594Z,38.79
2023-06-10T17:59:54.127Z,38.88
2023-06-10T18:02:22.708Z,38.99
2023-06-10T18:04:52.398Z,38.99
2023-06-10T18:07:20.525Z,39.01
2023-06-10T18:09:50.952Z,39.26
2023-06-10T18:12:19.248Z,39.24
2023-06-10T18:14:49.599Z,39.22
2023-06-10T18:17:17.731Z,39.22
2023-06-10T18:19:48.226Z,39.25
2023-06-10T18:22:16.440Z,39.07
2023-06-10T18:24:46.885Z,39.24
2023-06-10T18:27:16.784Z,38.97
2023-06-10T18:29:46.595Z,38.99
2023-06-10T18:32:14.968Z,39.27
2023-06-10T18:34:44.351Z,39.22
2023-06-10T18:37:12.430Z,39.38
2023-06-10T18:39:42.936Z,39.16
2023-06-10T18:42:11.245Z,39.47
2023-06-10T18:44:41.878Z,39.38
2023-06-10T18:47:09.944Z,39.25
2023-06-10T18:49:39.745Z,39.39
2023-06-10T18:52:08.182Z,39.50
2023-06-10T18:54:37.661Z,39.46
2023-06-10T18:57:07.137Z,39.35
2023-06-10T18:59:36.611Z,39.22
2023-06-10T19:02:05.056Z,39.46
2023-06-10T19:04:34.584Z,39.58
2023-06-10T19:07:03.082Z,39.39
2023-06-10T19:09:32.477Z,39.34
2023-06-10T19:12:00.857Z,39.35
2023-06-10T19:14:30.682Z,39.62
2023-06-10T19:16:58.846Z,39.53
2023-06-10T19:19:29.225Z,39.35
2023-06-10T19:21:57.632Z,39.30
2023-06-10T19:24:28.021Z,39.35
2023-06-10T19:26:56.073Z,39.52
2023-06-10T19:29:26.572Z,39.51
2023-06-10T19:31:54.689Z,39.59
2023-06-10T19:34:25.190Z,39.39
2023-06-10T19:36:53.288Z,39.47
2023-06-10T19:39:22.943Z,39.44
2023-06-10T19:41:51.178Z,39.56
2023-06-10T19:44:21.604Z,39.36
2023-06-10T19:46:49.956Z,39.60
2023-06-10T19:49:20.225Z,39.45
2023-06-10T19:51:50.236Z,39.56
2023-06-10T19:54:20.128Z,39.57
2023-06-10T19:56:48.235Z,39.28
2023-06-10T19:59:17.916Z,39.46
2023-06-10T20:01:46.545Z,39.28
2023-06-10T20:04:16.582Z,39.46
2023-06-10T20:06:45.147Z,39.38
2023-06-10T20:09:14.710Z,39.48
2023-06-10T20:11:42.932Z,39.37
2023-06-10T20:14:14.333Z,39.37
2023-06-10T20:16:42.795Z,39.40
2023-06-10T20:19:12.312Z,39.56
2023-06-10T20:21:41.428Z,39.45
2023-06-10T20:24:11.046Z,39.22
2023-06-10T20:26:39.171Z,39.39
2023-06-10T20:29:09.741Z,39.28
2023-06-10T20:31:38.099Z,39.30
2023-06-10T20:34:07.567Z,39.36
2023-06-10T20:36:35.775Z,39.43
2023-06-10T20:39:06.608Z,39.40
2023-06-10T20:41:35.648Z,39.31
2023-06-10T20:44:05.497Z,39.41
2023-06-10T20:46:33.723Z,39.24
2023-06-10T20:49:03.339Z,39.22
2023-06-10T20:51:31.392Z,39.17
2023-06-10T20:54:01.813Z,39.42
2023-06-10T20:56:29.974Z,39.19
2023-06-10T20:59:00.645Z,39.26
2023-06-10T21:01:29.023Z,39.13
2023-06-10T21:03:59.474Z,39.43
2023-06-10T21:06:28.491Z,39.29
2023-06-10T21:08:58.071Z,39.27
2023-06-10T21:11:26.591Z,39.10
2023-06-10T21:13:57.108Z,39.21
2023-06-10T21:16:25.373Z,39.33
2023-06-10T21:18:56.330Z,39.40
2023-06-10T21:21:24.435Z,39.03
2023-06-10T21:23:55.478Z,39.22
2023-06-10T21:26:23.596Z,39.15
2023-06-10T21:28:52.893Z,39.16
2023-06-10T21:31:21.389Z,39.18
2023-06-10T21:33:51.047Z,39.03
2023-06-10T21:36:19.625Z,38.99
2023-06-10T21:38:49.293Z,39.31
2023-06-10T21:41:17.514Z,39.17
2023-06-10T21:43:48.033Z,38.84
2023-06-10T21:46:16.044Z,39.29
2023-06-10T21:48:46.516Z,39.28
2023-06-10T21:51:14.544Z,39.16
2023-06-10T21:53:44.932Z,39.08
2023-06-10T21:56:37.857Z,39.02
2023-06-10T21:59:07.183Z,39.12
2023-06-10T22:01:36.899Z,39.06
2023-06-10T22:04:06.365Z,39.02
2023-06-10T22:06:34.944Z,38.88
2023-06-10T22:09:04.344Z,38.84
2023-06-10T22:11:32.611Z,38.87
2023-06-10T22:14:03.025Z,39.01
2023-06-10T22:16:31.665Z,38.88
2023-06-10T22:19:02.776Z,38.97
2023-06-10T22:21:31.206Z,38.70
2023-06-10T22:24:01.130Z,38.92
2023-06-10T22:26:40.021Z,38.77
2023-06-10T22:29:13.233Z,38.80
2023-06-10T22:31:41.474Z,38.96
2023-06-10T22:34:11.915Z,38.76
2023-06-10T22:36:40.328Z,39.03
2023-06-10T22:39:13.340Z,38.69
2023-06-10T22:41:41.518Z,38.48
2023-06-10T22:44:11.106Z,38.78
2023-06-10T22:46:39.163Z,38.52
2023-06-10T22:49:11.720Z,38.46
2023-06-10T22:51:39.935Z,38.51
2023-06-10T22:54:10.360Z,38.58
2023-06-10T22:56:38.506Z,38.64
2023-06-10T22:59:08.883Z,38.48
2023-06-10T23:01:36.994Z,38.75
2023-06-10T23:04:08.083Z,38.46
2023-06-10T23:06:36.312Z,38.53
2023-06-10T23:09:06.374Z,38.54
2023-06-10T23:11:34.449Z,38.58
2023-06-10T23:14:04.865Z,38.35
2023-06-10T23:16:57.636Z,38.51
2023-06-10T23:19:28.205Z,38.56
2023-06-10T23:21:57.478Z,38.19
2023-06-10T23:24:30.215Z,38.26
2023-06-10T23:26:59.777Z,38.17
2023-06-10T23:29:29.794Z,38.36
2023-06-10T23:31:58.554Z,38.25
2023-06-10T23:34:28.083Z,38.13
2023-06-10T23:36:57.634Z,38.41
2023-06-10T23:39:27.003Z,38.53
2023-06-10T23:41:55.452Z,38.04
2023-06-10T23:44:26.018Z,38.20
2023-06-10T23:46:54.187Z,38.23
2023-06-10T23:49:24.634Z,38.30
2023-06-10T23:51:52.647Z,38.28
2023-06-10T23:54:22.960Z,38.30
2023-06-10T23:56:50.976Z,38.32
2023-06-10T23:59:21.379Z,38.15
